Terminal Aerodrome Forecast
Issued by NWS

Home | Current Version | Previous Version | Text Only | Print | Product List | Glossary Off
Versions: 1 2 3 4 5 6 7 8 9 10 11 12 13 14 15 16 17 18 19 20 21 22 23 24 25 26 27 28

985
FTUS43 KLOT 241521 AAA
TAFDPA
TAF AMD
KDPA 241521Z 2415/2512 08010KT 5SM BR SCT015 OVC100
     FM241700 09012KT P6SM BKN015 OVC060
      TEMPO 2417/2420 -RA
     FM242300 11012G18KT P6SM VCSH OVC008
     FM250300 12015G25KT 2SM -SHRA BR OVC006
     FM250700 25022G32KT P6SM BKN020=

USA.gov is the U.S. government's official web portal to all federal, state and local government web resources and services.